createdAt,value
2018-06-04T00:00:22.456Z,21.98
2018-06-04T00:00:48.589Z,22.08
2018-06-04T00:01:14.736Z,22.06
2018-06-04T00:01:40.874Z,22.06
2018-06-04T00:02:07.033Z,22.02
2018-06-04T00:02:33.173Z,22
2018-06-04T00:02:59.340Z,22
2018-06-04T00:03:25.496Z,22.07
2018-06-04T00:03:51.641Z,22.02
2018-06-04T00:04:17.777Z,22
2018-06-04T00:04:43.943Z,22.07
2018-06-04T00:05:10.087Z,21.92
2018-06-04T00:05:36.229Z,21.96
2018-06-04T00:06:02.372Z,21.95
2018-06-04T00:06:28.507Z,21.99
2018-06-04T00:06:54.648Z,21.99
2018-06-04T00:07:20.788Z,22
2018-06-04T00:07:46.947Z,22.02
2018-06-04T00:08:13.087Z,21.99
2018-06-04T00:08:39.228Z,22.02
2018-06-04T00:09:05.373Z,21.99
2018-06-04T00:09:31.540Z,22.02
2018-06-04T00:09:57.674Z,22
2018-06-04T00:10:23.811Z,22.02
2018-06-04T00:10:50.344Z,22.11
2018-06-04T00:11:16.482Z,22.02
2018-06-04T00:11:42.617Z,22.06
2018-06-04T00:12:08.759Z,22.06
2018-06-04T00:12:34.901Z,22.04
2018-06-04T00:13:01.039Z,21.95
2018-06-04T00:13:27.180Z,22.02
2018-06-04T00:13:53.317Z,21.92
2018-06-04T00:14:19.512Z,21.91
2018-06-04T00:14:45.669Z,21.93
2018-06-04T00:15:11.814Z,21.95
2018-06-04T00:15:37.955Z,21.92
2018-06-04T00:16:04.101Z,21.93
2018-06-04T00:16:30.232Z,21.95
2018-06-04T00:16:56.379Z,22
2018-06-04T00:17:22.525Z,21.89
2018-06-04T00:17:48.661Z,21.98
2018-06-04T00:18:14.803Z,21.95
2018-06-04T00:18:40.939Z,21.95
2018-06-04T00:19:07.136Z,21.98
2018-06-04T00:19:33.270Z,21.92
2018-06-04T00:19:59.405Z,21.88
2018-06-04T00:20:25.548Z,21.91
2018-06-04T00:20:51.713Z,21.91
2018-06-04T00:21:17.853Z,21.93
2018-06-04T00:21:43.991Z,21.88
2018-06-04T00:22:10.136Z,21.88
2018-06-04T00:22:36.294Z,21.98
2018-06-04T00:23:02.440Z,21.99
2018-06-04T00:23:28.577Z,21.95
2018-06-04T00:23:54.712Z,21.83
2018-06-04T00:24:20.854Z,21.92
2018-06-04T00:24:47.043Z,21.88
2018-06-04T00:25:13.204Z,21.88
2018-06-04T00:25:39.347Z,21.91
2018-06-04T00:26:05.483Z,21.93
2018-06-04T00:26:31.629Z,21.82
2018-06-04T00:26:57.797Z,21.83
2018-06-04T00:27:23.933Z,21.8
2018-06-04T00:27:50.104Z,21.79
2018-06-04T00:28:16.266Z,21.79
2018-06-04T00:28:42.402Z,21.76
2018-06-04T00:29:08.543Z,21.83
2018-06-04T00:29:34.710Z,21.79
2018-06-04T00:30:00.852Z,21.85
2018-06-04T00:30:26.991Z,21.8
2018-06-04T00:30:53.158Z,21.79
2018-06-04T00:31:19.300Z,21.88
2018-06-04T00:31:45.441Z,21.79
2018-06-04T00:32:11.606Z,21.88
2018-06-04T00:32:37.745Z,21.83
2018-06-04T00:33:03.883Z,21.88
2018-06-04T00:33:30.023Z,21.79
2018-06-04T00:33:56.160Z,21.77
2018-06-04T00:34:22.313Z,21.77
2018-06-04T00:34:48.479Z,21.77
2018-06-04T00:35:14.637Z,21.83
2018-06-04T00:35:40.781Z,21.82
2018-06-04T00:36:06.911Z,21.77
2018-06-04T00:36:33.057Z,21.83
2018-06-04T00:36:59.211Z,21.88
2018-06-04T00:37:25.348Z,21.82
2018-06-04T00:37:51.516Z,21.85
2018-06-04T00:38:17.650Z,21.88
2018-06-04T00:38:43.786Z,21.98
2018-06-04T00:39:09.931Z,21.92
2018-06-04T00:39:36.067Z,21.82
2018-06-04T00:40:02.205Z,21.92
2018-06-04T00:40:28.342Z,21.82
2018-06-04T00:40:54.481Z,21.79
2018-06-04T00:41:20.631Z,21.79
2018-06-04T00:41:46.770Z,21.8
2018-06-04T00:42:12.905Z,21.85
2018-06-04T00:42:39.082Z,21.85
2018-06-04T00:43:05.209Z,21.73
2018-06-04T00:43:31.351Z,21.73
2018-06-04T00:43:57.518Z,21.83
2018-06-04T00:44:23.658Z,21.76
2018-06-04T00:44:49.802Z,21.72
2018-06-04T00:45:15.961Z,21.72
2018-06-04T00:45:42.101Z,21.7
2018-06-04T00:46:08.253Z,21.7
2018-06-04T00:46:34.389Z,21.7
2018-06-04T00:47:00.521Z,21.77
2018-06-04T00:47:26.665Z,21.69
2018-06-04T00:47:52.810Z,21.73
2018-06-04T00:48:18.946Z,21.73
2018-06-04T00:48:45.081Z,21.75
2018-06-04T00:49:11.222Z,21.77
2018-06-04T00:49:37.369Z,21.73
2018-06-04T00:50:03.504Z,21.69
2018-06-04T00:50:29.647Z,21.73
2018-06-04T00:50:55.790Z,21.69
2018-06-04T00:51:21.927Z,21.73
2018-06-04T00:51:48.071Z,21.73
2018-06-04T00:52:14.213Z,21.7
2018-06-04T00:52:40.392Z,21.67
2018-06-04T00:53:06.492Z,21.7
2018-06-04T00:53:32.631Z,21.8
2018-06-04T00:53:58.773Z,21.7
2018-06-04T00:54:24.907Z,21.73
2018-06-04T00:54:51.044Z,21.73
2018-06-04T00:55:17.194Z,21.7
2018-06-04T00:55:43.330Z,21.79
2018-06-04T00:56:09.465Z,21.73
2018-06-04T00:56:35.608Z,21.7
2018-06-04T00:57:01.751Z,21.67
2018-06-04T00:57:27.886Z,21.76
2018-06-04T00:57:54.037Z,21.73
2018-06-04T00:58:20.178Z,21.76
2018-06-04T00:58:46.315Z,21.73
2018-06-04T00:59:12.459Z,21.73
2018-06-04T00:59:38.603Z,21.6
2018-06-04T01:00:04.751Z,21.77
2018-06-04T01:00:30.886Z,21.67
2018-06-04T01:00:57.026Z,21.64
2018-06-04T01:01:23.236Z,21.64
2018-06-04T01:01:49.371Z,21.64
2018-06-04T01:02:15.514Z,21.7
2018-06-04T01:02:41.654Z,21.62
2018-06-04T01:03:07.790Z,21.67
2018-06-04T01:03:33.956Z,21.61
2018-06-04T01:04:00.104Z,21.6
2018-06-04T01:04:26.240Z,21.57
2018-06-04T01:04:52.385Z,21.58
2018-06-04T01:05:18.526Z,21.6
2018-06-04T01:05:44.666Z,21.57
2018-06-04T01:06:10.805Z,21.57
2018-06-04T01:06:36.969Z,21.57
2018-06-04T01:07:03.106Z,21.52
2018-06-04T01:07:29.251Z,21.55
2018-06-04T01:07:55.383Z,21.61
2018-06-04T01:08:21.550Z,21.64
2018-06-04T01:08:47.720Z,21.55
2018-06-04T01:09:13.855Z,21.57
2018-06-04T01:09:39.993Z,21.62
2018-06-04T01:10:06.127Z,21.6
2018-06-04T01:10:32.263Z,21.61
2018-06-04T01:10:58.403Z,21.57
2018-06-04T01:11:24.570Z,21.58
2018-06-04T01:11:50.712Z,21.61
2018-06-04T01:12:16.859Z,21.62
2018-06-04T01:12:42.996Z,21.55
2018-06-04T01:13:09.163Z,21.61
2018-06-04T01:13:35.326Z,21.55
2018-06-04T01:14:01.485Z,21.57
2018-06-04T01:14:27.675Z,21.6
2018-06-04T01:14:53.823Z,21.51
2018-06-04T01:15:19.958Z,21.58
2018-06-04T01:15:46.098Z,21.57
2018-06-04T01:16:12.237Z,21.55
2018-06-04T01:16:38.374Z,21.54
2018-06-04T01:17:04.556Z,21.58
2018-06-04T01:17:30.683Z,21.58
2018-06-04T01:17:56.824Z,21.54
2018-06-04T01:18:22.955Z,21.51
2018-06-04T01:18:49.109Z,21.42
2018-06-04T01:19:15.288Z,21.46
2018-06-04T01:19:41.446Z,21.48
2018-06-04T01:20:07.582Z,21.43
2018-06-04T01:20:33.727Z,21.43
2018-06-04T01:20:59.894Z,21.45
2018-06-04T01:21:26.027Z,21.52
2018-06-04T01:21:52.194Z,21.46
2018-06-04T01:22:18.333Z,21.4
2018-06-04T01:22:44.472Z,21.39
2018-06-04T01:23:10.611Z,21.45
2018-06-04T01:23:36.756Z,21.46
2018-06-04T01:24:02.883Z,21.45
2018-06-04T01:24:29.029Z,21.46
2018-06-04T01:24:55.164Z,21.43
2018-06-04T01:25:21.299Z,21.45
2018-06-04T01:25:47.462Z,21.45
2018-06-04T01:26:13.606Z,21.46
2018-06-04T01:26:39.746Z,21.37
2018-06-04T01:27:05.888Z,21.39
2018-06-04T01:27:32.027Z,21.32
2018-06-04T01:27:58.174Z,21.32
2018-06-04T01:28:24.340Z,21.32
2018-06-04T01:28:50.480Z,21.29
2018-06-04T01:29:16.617Z,21.32
2018-06-04T01:29:42.764Z,21.27
2018-06-04T01:30:08.900Z,21.2
2018-06-04T01:30:35.070Z,21.27
2018-06-04T01:31:01.222Z,21.21
2018-06-04T01:31:27.359Z,21.24
2018-06-04T01:31:53.522Z,21.27
2018-06-04T01:32:19.665Z,21.21
2018-06-04T01:32:45.806Z,21.2
2018-06-04T01:33:11.947Z,21.21
2018-06-04T01:33:38.088Z,21.2
2018-06-04T01:34:04.224Z,21.25
2018-06-04T01:34:30.364Z,21.18
2018-06-04T01:34:56.532Z,21.22
2018-06-04T01:35:22.667Z,21.21
2018-06-04T01:35:48.807Z,21.25
2018-06-04T01:36:14.950Z,21.18
2018-06-04T01:36:41.078Z,21.21
2018-06-04T01:37:07.222Z,21.24
2018-06-04T01:37:33.363Z,21.27
2018-06-04T01:37:59.505Z,21.25
2018-06-04T01:38:25.646Z,21.22
2018-06-04T01:38:51.790Z,21.25
2018-06-04T01:39:17.926Z,21.21
2018-06-04T01:39:44.068Z,21.18
2018-06-04T01:40:10.207Z,21.18
2018-06-04T01:40:36.349Z,21.25
2018-06-04T01:41:02.485Z,21.18
2018-06-04T01:41:28.648Z,21.21
2018-06-04T01:41:54.789Z,21.2
2018-06-04T01:42:20.953Z,21.22
2018-06-04T01:42:47.093Z,21.24
2018-06-04T01:43:13.231Z,21.22
2018-06-04T01:43:39.390Z,21.22
2018-06-04T01:44:05.531Z,21.25
2018-06-04T01:44:31.677Z,21.27
2018-06-04T01:44:57.836Z,21.29
2018-06-04T01:45:23.984Z,21.27
2018-06-04T01:45:50.119Z,21.27
2018-06-04T01:46:16.258Z,21.35
2018-06-04T01:46:42.399Z,21.24
2018-06-04T01:47:08.538Z,21.32
2018-06-04T01:47:34.683Z,21.24
2018-06-04T01:48:00.827Z,21.32
2018-06-04T01:48:26.987Z,21.25
2018-06-04T01:48:53.142Z,21.29
2018-06-04T01:49:19.283Z,21.29
2018-06-04T01:49:45.420Z,21.27
2018-06-04T01:50:11.560Z,21.32
2018-06-04T01:50:37.699Z,21.3
2018-06-04T01:51:03.843Z,21.4
2018-06-04T01:51:30.003Z,21.33
2018-06-04T01:51:56.143Z,21.33
2018-06-04T01:52:22.284Z,21.3
2018-06-04T01:52:48.425Z,21.35
2018-06-04T01:53:14.560Z,21.27
2018-06-04T01:53:40.732Z,21.27
2018-06-04T01:54:06.874Z,21.24
2018-06-04T01:54:33.040Z,21.29
2018-06-04T01:54:59.188Z,21.29
2018-06-04T01:55:25.329Z,21.27
2018-06-04T01:55:51.473Z,21.32
2018-06-04T01:56:17.613Z,21.29
2018-06-04T01:56:43.749Z,21.29
2018-06-04T01:57:09.899Z,21.33
2018-06-04T01:57:36.040Z,21.27
2018-06-04T01:58:02.180Z,21.27
2018-06-04T01:58:28.323Z,21.35
2018-06-04T01:58:54.465Z,21.22
2018-06-04T01:59:20.632Z,21.18
2018-06-04T01:59:46.818Z,21.3
2018-06-04T02:00:12.957Z,21.22
2018-06-04T02:00:39.119Z,21.25
2018-06-04T02:01:05.285Z,21.22
2018-06-04T02:01:31.427Z,21.27
2018-06-04T02:01:57.564Z,21.2
2018-06-04T02:02:23.698Z,21.25
2018-06-04T02:02:49.845Z,21.2
2018-06-04T02:03:15.988Z,21.17
2018-06-04T02:03:42.124Z,21.2
2018-06-04T02:04:08.266Z,21.21
2018-06-04T02:04:34.404Z,21.21
2018-06-04T02:05:00.546Z,21.22
2018-06-04T02:05:26.690Z,21.24
2018-06-04T02:05:52.823Z,21.18
2018-06-04T02:06:18.966Z,21.14
2018-06-04T02:06:45.104Z,21.09
2018-06-04T02:07:11.237Z,21.18
2018-06-04T02:07:37.379Z,21.09
2018-06-04T02:08:03.511Z,21.14
2018-06-04T02:08:29.657Z,21.02
2018-06-04T02:08:55.819Z,21.2
2018-06-04T02:09:21.959Z,21.14
2018-06-04T02:09:48.103Z,21.07
2018-06-04T02:10:14.235Z,21.11
2018-06-04T02:10:40.375Z,21.18
2018-06-04T02:11:06.526Z,21.07
2018-06-04T02:11:32.670Z,21.14
2018-06-04T02:11:58.807Z,21.12
2018-06-04T02:12:24.951Z,21.05
2018-06-04T02:12:51.085Z,21.14
2018-06-04T02:13:17.231Z,21.12
2018-06-04T02:13:43.395Z,21.15
2018-06-04T02:14:09.526Z,21.06
2018-06-04T02:14:35.669Z,21.14
2018-06-04T02:15:01.827Z,21.06
2018-06-04T02:15:27.973Z,21.06
2018-06-04T02:15:54.119Z,21.06
2018-06-04T02:16:20.260Z,21.05
2018-06-04T02:16:46.405Z,21.07
2018-06-04T02:17:12.537Z,21.11
2018-06-04T02:17:38.679Z,20.99
2018-06-04T02:18:04.815Z,21.11
2018-06-04T02:18:30.951Z,21.14
2018-06-04T02:18:57.089Z,21.09
2018-06-04T02:19:23.261Z,21.12
2018-06-04T02:19:49.470Z,21.06
2018-06-04T02:20:15.614Z,21.07
2018-06-04T02:20:41.756Z,21.03
2018-06-04T02:21:07.938Z,21
2018-06-04T02:21:34.099Z,21.06
2018-06-04T02:22:00.249Z,21.09
2018-06-04T02:22:26.382Z,21.09
2018-06-04T02:22:52.520Z,21
2018-06-04T02:23:18.663Z,21.07
2018-06-04T02:23:44.824Z,20.95
2018-06-04T02:24:10.970Z,20.96
2018-06-04T02:24:37.107Z,20.95
2018-06-04T02:25:03.280Z,21.07
2018-06-04T02:25:29.416Z,21.05
2018-06-04T02:25:55.554Z,21.03
2018-06-04T02:26:21.690Z,21.07
2018-06-04T02:26:47.832Z,21.02
2018-06-04T02:27:13.980Z,21.03
2018-06-04T02:27:40.120Z,20.96
2018-06-04T02:28:06.253Z,21
2018-06-04T02:28:32.397Z,20.97
2018-06-04T02:28:58.644Z,20.93
2018-06-04T02:29:24.765Z,20.92
2018-06-04T02:29:50.905Z,21
2018-06-04T02:30:17.071Z,20.96
2018-06-04T02:30:43.236Z,20.96
2018-06-04T02:31:09.372Z,20.97
2018-06-04T02:31:35.534Z,20.96
2018-06-04T02:32:01.679Z,21
2018-06-04T02:32:27.813Z,20.96
2018-06-04T02:32:53.976Z,20.93
2018-06-04T02:33:20.188Z,20.93
2018-06-04T02:33:46.333Z,20.95
2018-06-04T02:34:12.518Z,20.92
2018-06-04T02:34:38.683Z,20.93
2018-06-04T02:35:04.889Z,20.88
2018-06-04T02:35:31.036Z,20.92
2018-06-04T02:35:57.172Z,20.87
2018-06-04T02:36:23.336Z,20.95
2018-06-04T02:36:49.544Z,20.95
2018-06-04T02:37:15.712Z,20.93
2018-06-04T02:37:41.848Z,20.88
2018-06-04T02:38:08.016Z,20.92
2018-06-04T02:38:34.179Z,20.9
2018-06-04T02:39:00.324Z,20.92
2018-06-04T02:39:26.465Z,20.88
2018-06-04T02:39:52.613Z,20.95
2018-06-04T02:40:18.777Z,20.93
2018-06-04T02:40:45.000Z,20.9
2018-06-04T02:41:11.134Z,20.93
2018-06-04T02:41:37.295Z,20.9
2018-06-04T02:42:03.460Z,20.84
2018-06-04T02:42:29.629Z,20.87
2018-06-04T02:42:55.811Z,20.85
2018-06-04T02:43:21.954Z,20.92
2018-06-04T02:43:48.110Z,20.87
2018-06-04T02:44:14.283Z,20.93
2018-06-04T02:44:40.438Z,20.92
2018-06-04T02:45:06.581Z,20.87
2018-06-04T02:45:32.764Z,20.85
2018-06-04T02:45:58.902Z,20.85
2018-06-04T02:46:25.078Z,20.78
2018-06-04T02:46:51.235Z,20.85
2018-06-04T02:47:17.393Z,20.9
2018-06-04T02:47:43.618Z,20.88
2018-06-04T02:48:09.780Z,20.87
2018-06-04T02:48:35.968Z,20.9
2018-06-04T02:49:02.124Z,20.9
2018-06-04T02:49:28.265Z,20.87
2018-06-04T02:49:54.471Z,20.84
2018-06-04T02:50:20.563Z,20.95
2018-06-04T02:50:46.731Z,20.88
2018-06-04T02:51:12.888Z,20.85
2018-06-04T02:51:39.034Z,20.8
2018-06-04T02:52:05.198Z,20.82
2018-06-04T02:52:31.330Z,20.77
2018-06-04T02:52:57.502Z,20.72
2018-06-04T02:53:23.640Z,20.7
2018-06-04T02:53:49.781Z,20.75
2018-06-04T02:54:15.925Z,20.82
2018-06-04T02:54:42.137Z,20.8
2018-06-04T02:55:08.324Z,20.74
2018-06-04T02:55:34.483Z,20.75
2018-06-04T02:56:00.637Z,20.7
2018-06-04T02:56:26.777Z,20.74
2018-06-04T02:56:52.943Z,20.74
2018-06-04T02:57:19.107Z,20.77
2018-06-04T02:57:45.263Z,20.81
2018-06-04T02:58:11.451Z,20.69
2018-06-04T02:58:37.593Z,20.8
2018-06-04T02:59:03.734Z,20.78
2018-06-04T02:59:29.903Z,20.75
2018-06-04T02:59:56.043Z,20.78
2018-06-04T03:00:22.214Z,20.8
2018-06-04T03:00:48.385Z,20.82
2018-06-04T03:01:14.519Z,20.85
2018-06-04T03:01:40.677Z,20.87
2018-06-04T03:02:06.885Z,20.84
2018-06-04T03:02:33.141Z,20.8
2018-06-04T03:02:59.399Z,20.82
2018-06-04T03:03:25.684Z,20.85
2018-06-04T03:03:51.869Z,20.88
2018-06-04T03:04:18.149Z,20.77
2018-06-04T03:04:44.391Z,20.82
2018-06-04T03:05:10.577Z,20.84
2018-06-04T03:05:36.738Z,20.9
2018-06-04T03:06:02.877Z,20.85
2018-06-04T03:06:29.041Z,20.85
2018-06-04T03:06:55.196Z,20.78
2018-06-04T03:07:21.364Z,20.8
2018-06-04T03:07:47.574Z,20.78
2018-06-04T03:08:13.714Z,20.74
2018-06-04T03:08:39.865Z,20.75
2018-06-04T03:09:06.004Z,20.77
2018-06-04T03:09:32.144Z,20.8
2018-06-04T03:09:58.330Z,20.78
2018-06-04T03:10:24.464Z,20.77
2018-06-04T03:10:50.610Z,20.69
2018-06-04T03:11:16.748Z,20.69
2018-06-04T03:11:42.912Z,20.69
2018-06-04T03:12:09.050Z,20.65
2018-06-04T03:12:35.186Z,20.7
2018-06-04T03:13:01.328Z,20.66
2018-06-04T03:13:27.467Z,20.7
2018-06-04T03:13:53.625Z,20.7
2018-06-04T03:14:19.792Z,20.63
2018-06-04T03:14:45.974Z,20.66
2018-06-04T03:15:12.163Z,20.65
2018-06-04T03:15:38.298Z,20.66
2018-06-04T03:16:04.490Z,20.67
2018-06-04T03:16:30.629Z,20.63
2018-06-04T03:16:56.814Z,20.67
2018-06-04T03:17:22.984Z,20.67
2018-06-04T03:17:49.122Z,20.67
2018-06-04T03:18:15.264Z,20.66
2018-06-04T03:18:41.407Z,20.59
2018-06-04T03:19:07.546Z,20.65
2018-06-04T03:19:33.685Z,20.59
2018-06-04T03:19:59.842Z,20.59
2018-06-04T03:20:25.983Z,20.69
2018-06-04T03:20:52.122Z,20.69
2018-06-04T03:21:18.281Z,20.7
2018-06-04T03:21:44.432Z,20.63
2018-06-04T03:22:10.564Z,20.62
2018-06-04T03:22:36.704Z,20.69
2018-06-04T03:23:02.849Z,20.65
2018-06-04T03:23:28.981Z,20.62
2018-06-04T03:23:55.124Z,20.58
2018-06-04T03:24:21.256Z,20.62
2018-06-04T03:24:47.396Z,20.6
2018-06-04T03:25:13.542Z,20.63
2018-06-04T03:25:39.682Z,20.65
2018-06-04T03:26:05.841Z,20.63
2018-06-04T03:26:31.980Z,20.59
2018-06-04T03:26:58.122Z,20.66
2018-06-04T03:27:24.271Z,20.66
2018-06-04T03:27:50.407Z,20.62
2018-06-04T03:28:16.556Z,20.56
2018-06-04T03:28:42.722Z,20.63
2018-06-04T03:29:08.861Z,20.62
2018-06-04T03:29:35.002Z,20.63
2018-06-04T03:30:01.188Z,20.63
2018-06-04T03:30:27.377Z,20.62
2018-06-04T03:30:53.531Z,20.58
2018-06-04T03:31:19.728Z,20.7
2018-06-04T03:31:45.888Z,20.59
2018-06-04T03:32:12.059Z,20.63
2018-06-04T03:32:38.194Z,20.66
2018-06-04T03:33:04.339Z,20.62
2018-06-04T03:33:30.500Z,20.62
2018-06-04T03:33:56.641Z,20.62
2018-06-04T03:34:22.778Z,20.58
2018-06-04T03:34:48.934Z,20.59
2018-06-04T03:35:15.080Z,20.63
2018-06-04T03:35:41.261Z,20.65
2018-06-04T03:36:07.395Z,20.63
2018-06-04T03:36:33.536Z,20.59
2018-06-04T03:36:59.708Z,20.56
2018-06-04T03:37:25.843Z,20.65
2018-06-04T03:37:51.978Z,20.66
2018-06-04T03:38:18.143Z,20.62
2018-06-04T03:38:44.283Z,20.66
2018-06-04T03:39:10.419Z,20.63
2018-06-04T03:39:36.566Z,20.6
2018-06-04T03:40:02.701Z,20.65
2018-06-04T03:40:28.840Z,20.58
2018-06-04T03:40:55.003Z,20.59
2018-06-04T03:41:21.134Z,20.62
2018-06-04T03:41:47.275Z,20.65
2018-06-04T03:42:13.408Z,20.65
2018-06-04T03:42:39.559Z,20.59
2018-06-04T03:43:05.720Z,20.63
2018-06-04T03:43:31.854Z,20.65
2018-06-04T03:43:57.995Z,20.7
2018-06-04T03:44:24.134Z,20.66
2018-06-04T03:44:50.272Z,20.65
2018-06-04T03:45:16.413Z,20.65
2018-06-04T03:45:42.553Z,20.66
2018-06-04T03:46:08.687Z,20.65
2018-06-04T03:46:34.828Z,20.69
2018-06-04T03:47:00.964Z,20.69
2018-06-04T03:47:27.101Z,20.66
2018-06-04T03:47:53.245Z,20.65
2018-06-04T03:48:19.416Z,20.66
2018-06-04T03:48:45.555Z,20.59
2018-06-04T03:49:11.697Z,20.59
2018-06-04T03:49:37.841Z,20.56
2018-06-04T03:50:04.035Z,20.62
2018-06-04T03:50:30.115Z,20.62
2018-06-04T03:50:56.250Z,20.6
2018-06-04T03:51:22.388Z,20.65
2018-06-04T03:51:48.530Z,20.62
2018-06-04T03:52:14.688Z,20.59
2018-06-04T03:52:40.825Z,20.59
2018-06-04T03:53:06.973Z,20.67
2018-06-04T03:53:33.112Z,20.59
2018-06-04T03:53:59.251Z,20.66
2018-06-04T03:54:25.388Z,20.66
2018-06-04T03:54:51.532Z,20.67
2018-06-04T03:55:17.676Z,20.62
2018-06-04T03:55:43.814Z,20.66
2018-06-04T03:56:09.976Z,20.67
2018-06-04T03:56:36.119Z,20.7
2018-06-04T03:57:02.264Z,20.77
2018-06-04T03:57:28.400Z,20.77
2018-06-04T03:57:54.538Z,20.75
2018-06-04T03:58:20.703Z,20.77
2018-06-04T03:58:46.841Z,20.78
2018-06-04T03:59:12.985Z,20.9
2018-06-04T03:59:39.174Z,20.81
2018-06-04T04:00:05.317Z,20.9
2018-06-04T04:00:31.455Z,20.85
2018-06-04T04:00:57.592Z,20.88
2018-06-04T04:01:23.735Z,20.93
2018-06-04T04:01:49.946Z,20.92
2018-06-04T04:02:16.045Z,20.9
2018-06-04T04:02:42.204Z,20.9
2018-06-04T04:03:08.337Z,20.88
2018-06-04T04:03:34.478Z,20.93
2018-06-04T04:04:00.609Z,20.96
2018-06-04T04:04:26.757Z,20.88
2018-06-04T04:04:52.904Z,20.95
2018-06-04T04:05:19.063Z,20.93
2018-06-04T04:05:45.206Z,20.93
2018-06-04T04:06:11.348Z,20.9
2018-06-04T04:06:37.493Z,20.95
2018-06-04T04:07:03.635Z,20.96
2018-06-04T04:07:29.797Z,20.97
2018-06-04T04:07:55.934Z,21.02
2018-06-04T04:08:22.130Z,20.99
2018-06-04T04:08:48.218Z,20.95
2018-06-04T04:09:14.367Z,20.95
2018-06-04T04:09:40.497Z,21.02
2018-06-04T04:10:06.653Z,21.07
2018-06-04T04:10:32.796Z,21.06
2018-06-04T04:10:58.940Z,21.07
2018-06-04T04:11:25.081Z,21.02
2018-06-04T04:11:51.220Z,21.09
2018-06-04T04:12:17.361Z,21.17
2018-06-04T04:12:43.514Z,21.07
2018-06-04T04:13:09.665Z,21.06
2018-06-04T04:13:35.802Z,21.03
2018-06-04T04:14:01.955Z,21.05
2018-06-04T04:14:28.101Z,21.06
2018-06-04T04:14:54.237Z,21.05
2018-06-04T04:15:20.385Z,21.03
2018-06-04T04:15:46.512Z,21.14
2018-06-04T04:16:12.655Z,21.12
2018-06-04T04:16:38.793Z,21.07
2018-06-04T04:17:04.930Z,21.12
2018-06-04T04:17:31.073Z,21.17
2018-06-04T04:17:57.212Z,21.09
2018-06-04T04:18:23.354Z,21.02
2018-06-04T04:18:49.501Z,21.06
2018-06-04T04:19:15.643Z,21.07
2018-06-04T04:19:41.820Z,21.15
2018-06-04T04:20:07.960Z,21.14
2018-06-04T04:20:34.094Z,21.18
2018-06-04T04:21:00.228Z,21.09
2018-06-04T04:21:26.370Z,21.14
2018-06-04T04:21:52.508Z,21.09
2018-06-04T04:22:18.645Z,21.11
2018-06-04T04:22:44.789Z,21.11
2018-06-04T04:23:10.925Z,21.09
2018-06-04T04:23:37.067Z,21.21
2018-06-04T04:24:03.206Z,21.21
2018-06-04T04:24:29.389Z,21.22
2018-06-04T04:24:55.532Z,21.35
2018-06-04T04:25:21.679Z,21.33
2018-06-04T04:25:47.817Z,21.35
2018-06-04T04:26:13.960Z,21.3
2018-06-04T04:26:40.095Z,21.35
2018-06-04T04:27:06.242Z,21.24
2018-06-04T04:27:32.382Z,21.32
2018-06-04T04:27:58.565Z,21.39
2018-06-04T04:28:24.667Z,21.36
2018-06-04T04:28:50.851Z,21.37
2018-06-04T04:29:16.989Z,21.45
2018-06-04T04:29:43.132Z,21.39
2018-06-04T04:30:09.274Z,21.37
2018-06-04T04:30:35.447Z,21.39
2018-06-04T04:31:01.595Z,21.37
2018-06-04T04:31:27.751Z,21.39
2018-06-04T04:31:53.916Z,21.48
2018-06-04T04:32:20.081Z,21.4
2018-06-04T04:32:46.215Z,21.45
2018-06-04T04:33:12.400Z,21.5
2018-06-04T04:33:38.533Z,21.55
2018-06-04T04:34:04.671Z,21.54
2018-06-04T04:34:30.836Z,21.52
2018-06-04T04:34:56.982Z,21.54
2018-06-04T04:35:23.114Z,21.55
2018-06-04T04:35:49.283Z,21.55
2018-06-04T04:36:15.452Z,21.54
2018-06-04T04:36:41.589Z,21.57
2018-06-04T04:37:07.727Z,21.6
2018-06-04T04:37:33.891Z,21.58
2018-06-04T04:38:00.050Z,21.54
2018-06-04T04:38:26.185Z,21.58
2018-06-04T04:38:52.358Z,21.58
2018-06-04T04:39:18.519Z,21.61
2018-06-04T04:39:44.658Z,21.62
2018-06-04T04:40:10.796Z,21.6
2018-06-04T04:40:36.939Z,21.61
2018-06-04T04:41:03.083Z,21.8
2018-06-04T04:41:29.229Z,21.77
2018-06-04T04:41:55.369Z,21.79
2018-06-04T04:42:21.509Z,21.92
2018-06-04T04:42:47.645Z,22.11
2018-06-04T04:43:13.787Z,22.26
2018-06-04T04:43:39.923Z,22.45
2018-06-04T04:44:06.096Z,22.66
2018-06-04T04:44:32.233Z,22.94
2018-06-04T04:44:58.369Z,23.03
2018-06-04T04:45:24.511Z,23.18
2018-06-04T04:45:50.656Z,23.41
2018-06-04T04:46:16.797Z,23.65
2018-06-04T04:46:42.982Z,23.69
2018-06-04T04:47:09.076Z,23.87
2018-06-04T04:47:35.219Z,24.11
2018-06-04T04:48:01.360Z,24.24
2018-06-04T04:48:27.502Z,24.47
2018-06-04T04:48:53.643Z,24.66
2018-06-04T04:49:19.787Z,24.77
2018-06-04T04:49:45.972Z,24.86
2018-06-04T04:50:12.120Z,25.03
2018-06-04T04:50:38.301Z,25.21
2018-06-04T04:51:04.436Z,25.35
2018-06-04T04:51:30.582Z,25.46
2018-06-04T04:51:56.721Z,25.53
2018-06-04T04:52:22.901Z,25.7
2018-06-04T04:52:49.044Z,25.75
2018-06-04T04:53:15.184Z,25.87
2018-06-04T04:53:41.344Z,26.02
2018-06-04T04:54:07.481Z,26.23
2018-06-04T04:54:33.661Z,26.25
2018-06-04T04:54:59.825Z,26.33
2018-06-04T04:55:25.962Z,26.51
2018-06-04T04:55:52.108Z,26.52
2018-06-04T04:56:18.275Z,26.66
2018-06-04T04:56:44.436Z,26.77
2018-06-04T04:57:10.570Z,26.83
2018-06-04T04:57:36.713Z,26.9
2018-06-04T04:58:02.866Z,27.08
2018-06-04T04:58:29.038Z,27.12
2018-06-04T04:58:55.166Z,27.21
2018-06-04T04:59:21.308Z,27.27
2018-06-04T04:59:47.445Z,27.39
2018-06-04T05:00:13.609Z,27.42
2018-06-04T05:00:39.746Z,27.55
2018-06-04T05:01:05.886Z,27.54
2018-06-04T05:01:32.027Z,27.64
2018-06-04T05:01:58.171Z,27.64
2018-06-04T05:02:24.309Z,27.54
2018-06-04T05:02:50.506Z,27.65
2018-06-04T05:03:16.666Z,27.74
2018-06-04T05:03:42.797Z,27.78
2018-06-04T05:04:08.947Z,27.74
2018-06-04T05:04:35.108Z,27.74
2018-06-04T05:05:01.249Z,27.59
2018-06-04T05:05:27.392Z,27.54
2018-06-04T05:05:53.533Z,27.49
2018-06-04T05:06:19.670Z,27.45
2018-06-04T05:06:45.815Z,27.44
2018-06-04T05:07:11.987Z,27.35
2018-06-04T05:07:38.126Z,27.21
2018-06-04T05:08:04.285Z,27.15
2018-06-04T05:08:30.435Z,27.05
2018-06-04T05:08:56.570Z,27.07
2018-06-04T05:09:22.712Z,26.92
2018-06-04T05:09:48.867Z,26.84
2018-06-04T05:10:15.011Z,26.77
2018-06-04T05:10:41.156Z,26.77
2018-06-04T05:11:07.317Z,26.74
2018-06-04T05:11:33.455Z,26.74
2018-06-04T05:11:59.592Z,26.62
2018-06-04T05:12:25.736Z,26.56
2018-06-04T05:12:51.873Z,26.52
2018-06-04T05:13:18.017Z,26.52
2018-06-04T05:13:44.159Z,26.38
2018-06-04T05:14:10.325Z,26.36
2018-06-04T05:14:36.471Z,26.29
2018-06-04T05:15:02.640Z,26.34
2018-06-04T05:15:28.832Z,26.21
2018-06-04T05:15:54.989Z,26.23
2018-06-04T05:16:21.131Z,26.09
2018-06-04T05:16:47.299Z,26
2018-06-04T05:17:13.461Z,25.91
2018-06-04T05:17:39.605Z,25.85
2018-06-04T05:18:05.769Z,25.83
2018-06-04T05:18:31.966Z,25.73
2018-06-04T05:18:58.118Z,25.65
2018-06-04T05:19:24.283Z,25.62
2018-06-04T05:19:50.414Z,25.59
2018-06-04T05:20:16.557Z,25.55
2018-06-04T05:20:42.706Z,25.55
2018-06-04T05:21:08.870Z,25.48
2018-06-04T05:21:35.012Z,25.41
2018-06-04T05:22:01.152Z,25.44
2018-06-04T05:22:27.313Z,25.38
2018-06-04T05:22:53.464Z,25.32
2018-06-04T05:23:19.604Z,25.23
2018-06-04T05:23:45.744Z,25.17
2018-06-04T05:24:11.911Z,25.11
2018-06-04T05:24:38.056Z,25.01
2018-06-04T05:25:04.203Z,25.07
2018-06-04T05:25:30.363Z,25.04
2018-06-04T05:25:56.505Z,24.95
2018-06-04T05:26:22.647Z,24.92
2018-06-04T05:26:48.820Z,24.92
2018-06-04T05:27:14.964Z,24.88
2018-06-04T05:27:41.098Z,24.86
2018-06-04T05:28:07.235Z,24.86
2018-06-04T05:28:33.378Z,24.86
2018-06-04T05:28:59.534Z,24.74
2018-06-04T05:29:25.702Z,24.78
2018-06-04T05:29:51.834Z,24.76
2018-06-04T05:30:17.978Z,24.7
2018-06-04T05:30:44.115Z,24.76
2018-06-04T05:31:10.284Z,24.69
2018-06-04T05:31:36.428Z,24.77
2018-06-04T05:32:02.571Z,24.68
2018-06-04T05:32:28.711Z,24.66
2018-06-04T05:32:54.879Z,24.65
2018-06-04T05:33:21.020Z,24.6
2018-06-04T05:33:47.163Z,24.58
2018-06-04T05:34:13.302Z,24.45
2018-06-04T05:34:39.451Z,24.47
2018-06-04T05:35:05.590Z,24.48
2018-06-04T05:35:31.736Z,24.36
2018-06-04T05:35:57.874Z,24.35
2018-06-04T05:36:24.013Z,24.35
2018-06-04T05:36:50.172Z,24.29
2018-06-04T05:37:16.317Z,24.32
2018-06-04T05:37:42.458Z,24.28
2018-06-04T05:38:08.646Z,24.29
2018-06-04T05:38:34.808Z,24.33